sensor_id;sensor_type;location;lat;lon;timestamp;pressure;altitude;pressure_sealevel;temperature;humidity
42887;BME280;29032;56.028;92.904;2022-12-18T00:00:16;100322.84;;;-13.02;40.08
42887;BME280;29032;56.028;92.904;2022-12-18T00:05:20;100328.28;;;-12.99;40.08
42887;BME280;29032;56.028;92.904;2022-12-18T00:10:22;100329.81;;;-12.98;39.90
42887;BME280;29032;56.028;92.904;2022-12-18T00:15:26;100323.25;;;-12.97;40.17
42887;BME280;29032;56.028;92.904;2022-12-18T00:20:28;100324.81;;;-12.96;39.84
42887;BME280;29032;56.028;92.904;2022-12-18T00:25:32;100315.16;;;-12.97;40.13
42887;BME280;29032;56.028;92.904;2022-12-18T00:30:36;100316.34;;;-12.98;40.06
42887;BME280;29032;56.028;92.904;2022-12-18T00:35:39;100302.81;;;-13.01;40.31
42887;BME280;29032;56.028;92.904;2022-12-18T00:40:41;100301.66;;;-13.04;40.42
42887;BME280;29032;56.028;92.904;2022-12-18T00:45:44;100287.78;;;-13.02;40.31
42887;BME280;29032;56.028;92.904;2022-12-18T00:50:48;100295.47;;;-13.08;40.71
42887;BME280;29032;56.028;92.904;2022-12-18T00:55:50;100297.78;;;-13.10;40.73
42887;BME280;29032;56.028;92.904;2022-12-18T01:00:53;100296.22;;;-13.11;40.83
42887;BME280;29032;56.028;92.904;2022-12-18T01:05:56;100288.88;;;-13.14;40.76
42887;BME280;29032;56.028;92.904;2022-12-18T01:10:58;100289.28;;;-13.16;40.34
42887;BME280;29032;56.028;92.904;2022-12-18T01:16:02;100280.06;;;-13.11;41.03
42887;BME280;29032;56.028;92.904;2022-12-18T01:21:06;100280.41;;;-13.16;39.75
42887;BME280;29032;56.028;92.904;2022-12-18T01:26:10;100273.81;;;-13.29;40.48
42887;BME280;29032;56.028;92.904;2022-12-18T01:31:17;100262.16;;;-13.51;41.88
42887;BME280;29032;56.028;92.904;2022-12-18T01:36:19;100256.03;;;-13.45;40.23
42887;BME280;29032;56.028;92.904;2022-12-18T01:41:24;100264.50;;;-13.46;41.66
42887;BME280;29032;56.028;92.904;2022-12-18T01:46:28;100268.38;;;-13.37;41.65
42887;BME280;29032;56.028;92.904;2022-12-18T01:51:31;100265.69;;;-13.37;41.23
42887;BME280;29032;56.028;92.904;2022-12-18T01:56:33;100253.38;;;-13.30;41.41
42887;BME280;29032;56.028;92.904;2022-12-18T02:01:37;100255.25;;;-13.42;40.93
42887;BME280;29032;56.028;92.904;2022-12-18T02:06:41;100257.53;;;-13.54;41.06
42887;BME280;29032;56.028;92.904;2022-12-18T02:11:49;100252.53;;;-13.49;41.05
42887;BME280;29032;56.028;92.904;2022-12-18T02:16:59;100246.34;;;-13.53;41.27
42887;BME280;29032;56.028;92.904;2022-12-18T02:22:16;100246.72;;;-13.61;40.98
42887;BME280;29032;56.028;92.904;2022-12-18T02:27:25;100231.25;;;-13.75;42.25
42887;BME280;29032;56.028;92.904;2022-12-18T02:32:30;100221.25;;;-13.64;42.20
42887;BME280;29032;56.028;92.904;2022-12-18T02:37:34;100215.56;;;-13.52;42.43
42887;BME280;29032;56.028;92.904;2022-12-18T02:42:40;100197.50;;;-13.41;42.56
42887;BME280;29032;56.028;92.904;2022-12-18T02:47:46;100197.13;;;-13.28;41.42
42887;BME280;29032;56.028;92.904;2022-12-18T02:53:00;100192.16;;;-13.23;41.25
42887;BME280;29032;56.028;92.904;2022-12-18T02:58:14;100183.28;;;-13.34;40.88
42887;BME280;29032;56.028;92.904;2022-12-18T03:03:24;100185.94;;;-13.38;41.54
42887;BME280;29032;56.028;92.904;2022-12-18T03:08:28;100183.19;;;-13.55;41.40
42887;BME280;29032;56.028;92.904;2022-12-18T03:13:37;100186.63;;;-13.66;42.42
42887;BME280;29032;56.028;92.904;2022-12-18T03:18:45;100188.88;;;-13.78;42.45
42887;BME280;29032;56.028;92.904;2022-12-18T03:23:51;100186.25;;;-13.60;43.03
42887;BME280;29032;56.028;92.904;2022-12-18T03:29:03;100171.31;;;-13.40;43.35
42887;BME280;29032;56.028;92.904;2022-12-18T03:34:11;100171.72;;;-13.20;42.96
42887;BME280;29032;56.028;92.904;2022-12-18T03:39:19;100150.97;;;-13.05;42.49
42887;BME280;29032;56.028;92.904;2022-12-18T03:44:35;100152.50;;;-12.94;42.96
42887;BME280;29032;56.028;92.904;2022-12-18T03:49:47;100152.91;;;-13.02;42.38
42887;BME280;29032;56.028;92.904;2022-12-18T03:54:51;100155.97;;;-13.00;43.02
42887;BME280;29032;56.028;92.904;2022-12-18T03:59:58;100135.13;;;-12.86;43.15
42887;BME280;29032;56.028;92.904;2022-12-18T04:05:06;100125.91;;;-12.70;42.25
42887;BME280;29032;56.028;92.904;2022-12-18T04:10:13;100111.97;;;-12.51;42.22
42887;BME280;29032;56.028;92.904;2022-12-18T04:15:18;100089.19;;;-12.36;41.83
42887;BME280;29032;56.028;92.904;2022-12-18T04:20:21;100097.72;;;-12.41;41.69
42887;BME280;29032;56.028;92.904;2022-12-18T04:25:23;100097.75;;;-12.62;42.35
42887;BME280;29032;56.028;92.904;2022-12-18T04:30:38;100082.69;;;-12.56;43.02
42887;BME280;29032;56.028;92.904;2022-12-18T04:35:41;100084.56;;;-12.39;42.54
42887;BME280;29032;56.028;92.904;2022-12-18T04:40:43;100086.50;;;-12.32;41.99
42887;BME280;29032;56.028;92.904;2022-12-18T04:46:03;100088.78;;;-12.20;42.15
42887;BME280;29032;56.028;92.904;2022-12-18T04:51:05;100085.59;;;-12.01;41.71
42887;BME280;29032;56.028;92.904;2022-12-18T04:56:10;100073.19;;;-11.87;41.29
42887;BME280;29032;56.028;92.904;2022-12-18T05:01:15;100074.00;;;-11.94;40.97
42887;BME280;29032;56.028;92.904;2022-12-18T05:06:17;100092.63;;;-12.14;41.77
42887;BME280;29032;56.028;92.904;2022-12-18T05:11:19;100108.06;;;-12.14;41.51
42887;BME280;29032;56.028;92.904;2022-12-18T05:16:23;100115.00;;;-12.13;41.50
42887;BME280;29032;56.028;92.904;2022-12-18T05:21:25;100118.88;;;-12.14;41.50
42887;BME280;29032;56.028;92.904;2022-12-18T05:26:27;100116.88;;;-11.96;41.96
42887;BME280;29032;56.028;92.904;2022-12-18T05:31:31;100119.44;;;-11.67;40.58
42887;BME280;29032;56.028;92.904;2022-12-18T05:36:33;100115.53;;;-11.59;41.04
42887;BME280;29032;56.028;92.904;2022-12-18T05:41:35;100119.38;;;-11.53;41.41
42887;BME280;29032;56.028;92.904;2022-12-18T05:46:41;100114.66;;;-11.38;40.80
42887;BME280;29032;56.028;92.904;2022-12-18T05:51:43;100115.44;;;-11.38;41.06
42887;BME280;29032;56.028;92.904;2022-12-18T05:56:46;100118.53;;;-11.39;40.52
42887;BME280;29032;56.028;92.904;2022-12-18T06:01:49;100118.53;;;-11.39;40.16
42887;BME280;29032;56.028;92.904;2022-12-18T06:06:51;100116.63;;;-11.46;41.27
42887;BME280;29032;56.028;92.904;2022-12-18T06:11:53;100110.06;;;-11.45;40.62
42887;BME280;29032;56.028;92.904;2022-12-18T06:16:57;100110.09;;;-11.52;41.20
42887;BME280;29032;56.028;92.904;2022-12-18T06:21:59;100103.91;;;-11.49;40.93
42887;BME280;29032;56.028;92.904;2022-12-18T06:27:01;100102.97;;;-11.25;41.35
42887;BME280;29032;56.028;92.904;2022-12-18T06:32:05;100109.00;;;-11.03;40.71
42887;BME280;29032;56.028;92.904;2022-12-18T06:37:07;100106.13;;;-10.78;40.46
42887;BME280;29032;56.028;92.904;2022-12-18T06:42:09;100111.56;;;-10.40;40.10
42887;BME280;29032;56.028;92.904;2022-12-18T06:47:13;100108.03;;;-10.34;40.62
42887;BME280;29032;56.028;92.904;2022-12-18T06:52:16;100111.28;;;-10.12;39.92
42887;BME280;29032;56.028;92.904;2022-12-18T06:57:18;100114.22;;;-9.95;39.36
42887;BME280;29032;56.028;92.904;2022-12-18T07:02:22;100114.75;;;-9.77;39.19
42887;BME280;29032;56.028;92.904;2022-12-18T07:07:24;100113.03;;;-9.64;38.84
42887;BME280;29032;56.028;92.904;2022-12-18T07:12:26;100107.47;;;-9.53;39.22
42887;BME280;29032;56.028;92.904;2022-12-18T07:17:30;100113.59;;;-9.45;38.91
42887;BME280;29032;56.028;92.904;2022-12-18T07:22:33;100112.59;;;-9.59;39.03
42887;BME280;29032;56.028;92.904;2022-12-18T07:27:35;100116.44;;;-9.87;39.71
42887;BME280;29032;56.028;92.904;2022-12-18T07:32:38;100129.38;;;-10.01;40.20
42887;BME280;29032;56.028;92.904;2022-12-18T07:37:40;100115.09;;;-10.06;40.46
42887;BME280;29032;56.028;92.904;2022-12-18T07:42:43;100134.56;;;-9.80;40.28
42887;BME280;29032;56.028;92.904;2022-12-18T07:47:46;100130.59;;;-9.72;39.85
42887;BME280;29032;56.028;92.904;2022-12-18T07:52:48;100141.69;;;-9.63;39.85
42887;BME280;29032;56.028;92.904;2022-12-18T07:57:50;100131.59;;;-9.59;39.56
42887;BME280;29032;56.028;92.904;2022-12-18T08:02:54;100139.53;;;-9.44;39.98
42887;BME280;29032;56.028;92.904;2022-12-18T08:07:58;100149.13;;;-9.36;39.66
42887;BME280;29032;56.028;92.904;2022-12-18T08:13:00;100149.97;;;-9.43;39.60
42887;BME280;29032;56.028;92.904;2022-12-18T08:18:04;100143.78;;;-9.43;39.55
42887;BME280;29032;56.028;92.904;2022-12-18T08:23:06;100148.66;;;-9.62;39.70
42887;BME280;29032;56.028;92.904;2022-12-18T08:28:08;100139.69;;;-9.89;39.65
42887;BME280;29032;56.028;92.904;2022-12-18T08:33:12;100149.88;;;-10.00;39.79
42887;BME280;29032;56.028;92.904;2022-12-18T08:38:14;100142.34;;;-10.20;40.04
42887;BME280;29032;56.028;92.904;2022-12-18T08:43:17;100145.72;;;-10.50;40.96
42887;BME280;29032;56.028;92.904;2022-12-18T08:48:20;100157.44;;;-10.64;41.09
42887;BME280;29032;56.028;92.904;2022-12-18T08:53:25;100157.88;;;-10.69;41.28
42887;BME280;29032;56.028;92.904;2022-12-18T08:58:28;100166.75;;;-10.68;40.89
42887;BME280;29032;56.028;92.904;2022-12-18T09:03:31;100173.75;;;-10.71;41.03
42887;BME280;29032;56.028;92.904;2022-12-18T09:08:34;100166.09;;;-10.79;40.75
42887;BME280;29032;56.028;92.904;2022-12-18T09:13:36;100180.81;;;-10.84;41.05
42887;BME280;29032;56.028;92.904;2022-12-18T09:18:40;100173.09;;;-10.89;40.66
42887;BME280;29032;56.028;92.904;2022-12-18T09:23:42;100178.97;;;-10.94;40.83
42887;BME280;29032;56.028;92.904;2022-12-18T09:28:44;100167.78;;;-11.03;40.73
42887;BME280;29032;56.028;92.904;2022-12-18T09:33:48;100180.09;;;-10.95;40.94
42887;BME280;29032;56.028;92.904;2022-12-18T09:38:50;100194.84;;;-11.03;41.09
42887;BME280;29032;56.028;92.904;2022-12-18T09:43:55;100187.94;;;-11.11;40.74
42887;BME280;29032;56.028;92.904;2022-12-18T09:49:02;100206.13;;;-11.08;40.84
42887;BME280;29032;56.028;92.904;2022-12-18T09:54:20;100219.72;;;-11.23;41.06
42887;BME280;29032;56.028;92.904;2022-12-18T09:59:25;100219.03;;;-11.52;40.99
42887;BME280;29032;56.028;92.904;2022-12-18T10:04:31;100228.34;;;-11.56;41.50
42887;BME280;29032;56.028;92.904;2022-12-18T10:09:37;100252.31;;;-11.62;41.42
42887;BME280;29032;56.028;92.904;2022-12-18T10:14:48;100253.47;;;-11.66;41.59
42887;BME280;29032;56.028;92.904;2022-12-18T10:19:56;100265.47;;;-11.71;41.97
42887;BME280;29032;56.028;92.904;2022-12-18T10:25:05;100273.94;;;-11.65;42.72
42887;BME280;29032;56.028;92.904;2022-12-18T10:30:13;100275.47;;;-11.61;42.41
42887;BME280;29032;56.028;92.904;2022-12-18T10:35:20;100287.41;;;-11.51;42.43
42887;BME280;29032;56.028;92.904;2022-12-18T10:40:22;100276.63;;;-11.65;43.38
42887;BME280;29032;56.028;92.904;2022-12-18T10:45:24;100297.09;;;-11.61;43.44
42887;BME280;29032;56.028;92.904;2022-12-18T10:50:30;100298.66;;;-11.63;43.03
42887;BME280;29032;56.028;92.904;2022-12-18T10:55:35;100309.88;;;-11.68;42.82
42887;BME280;29032;56.028;92.904;2022-12-18T11:00:39;100300.63;;;-11.82;43.12
42887;BME280;29032;56.028;92.904;2022-12-18T11:05:43;100324.19;;;-11.93;44.17
42887;BME280;29032;56.028;92.904;2022-12-18T11:10:46;100327.66;;;-12.03;45.02
42887;BME280;29032;56.028;92.904;2022-12-18T11:15:49;100327.66;;;-12.10;44.77
42887;BME280;29032;56.028;92.904;2022-12-18T11:20:58;100330.38;;;-12.14;44.95
42887;BME280;29032;56.028;92.904;2022-12-18T11:26:03;100335.75;;;-12.25;45.36
42887;BME280;29032;56.028;92.904;2022-12-18T11:31:17;100338.09;;;-12.12;44.67
42887;BME280;29032;56.028;92.904;2022-12-18T11:36:22;100358.91;;;-12.16;45.70
42887;BME280;29032;56.028;92.904;2022-12-18T11:41:27;100367.41;;;-12.21;44.98
42887;BME280;29032;56.028;92.904;2022-12-18T11:46:36;100378.97;;;-12.25;44.43
42887;BME280;29032;56.028;92.904;2022-12-18T11:51:45;100371.63;;;-12.35;44.87
42887;BME280;29032;56.028;92.904;2022-12-18T11:56:53;100385.13;;;-12.35;45.15
42887;BME280;29032;56.028;92.904;2022-12-18T12:02:04;100391.31;;;-12.34;44.55
42887;BME280;29032;56.028;92.904;2022-12-18T12:07:29;100397.47;;;-12.41;44.86
42887;BME280;29032;56.028;92.904;2022-12-18T12:12:42;100407.50;;;-12.34;45.01
42887;BME280;29032;56.028;92.904;2022-12-18T12:17:51;100406.75;;;-12.35;44.76
42887;BME280;29032;56.028;92.904;2022-12-18T12:23:02;100399.75;;;-12.43;44.78
42887;BME280;29032;56.028;92.904;2022-12-18T12:28:17;100424.44;;;-12.48;44.79
42887;BME280;29032;56.028;92.904;2022-12-18T12:33:29;100424.81;;;-12.46;44.49
42887;BME280;29032;56.028;92.904;2022-12-18T12:38:41;100432.16;;;-12.43;44.53
42887;BME280;29032;56.028;92.904;2022-12-18T12:43:45;100443.34;;;-12.48;44.46
42887;BME280;29032;56.028;92.904;2022-12-18T12:48:49;100436.78;;;-12.47;44.37
42887;BME280;29032;56.028;92.904;2022-12-18T12:53:56;100448.78;;;-12.34;44.29
42887;BME280;29032;56.028;92.904;2022-12-18T12:59:04;100453.78;;;-12.36;44.46
42887;BME280;29032;56.028;92.904;2022-12-18T13:04:20;100459.19;;;-12.36;44.44
42887;BME280;29032;56.028;92.904;2022-12-18T13:09:25;100466.16;;;-12.35;44.47
42887;BME280;29032;56.028;92.904;2022-12-18T13:14:33;100479.66;;;-12.35;44.03
42887;BME280;29032;56.028;92.904;2022-12-18T13:19:35;100482.38;;;-12.35;44.07
42887;BME280;29032;56.028;92.904;2022-12-18T13:24:39;100481.66;;;-12.21;44.14
42887;BME280;29032;56.028;92.904;2022-12-18T13:29:42;100481.22;;;-12.27;44.05
42887;BME280;29032;56.028;92.904;2022-12-18T13:34:45;100478.53;;;-12.27;43.82
42887;BME280;29032;56.028;92.904;2022-12-18T13:39:49;100483.97;;;-12.19;43.44
42887;BME280;29032;56.028;92.904;2022-12-18T13:44:51;100491.69;;;-12.21;44.13
42887;BME280;29032;56.028;92.904;2022-12-18T13:49:55;100487.84;;;-12.10;43.54
42887;BME280;29032;56.028;92.904;2022-12-18T13:55:02;100489.38;;;-12.12;43.60
42887;BME280;29032;56.028;92.904;2022-12-18T14:00:26;100487.84;;;-12.10;43.29
42887;BME280;29032;56.028;92.904;2022-12-18T14:05:29;100482.03;;;-12.15;43.69
42887;BME280;29032;56.028;92.904;2022-12-18T14:10:33;100487.06;;;-12.10;43.65
42887;BME280;29032;56.028;92.904;2022-12-18T14:15:40;100488.63;;;-12.02;43.23
42887;BME280;29032;56.028;92.904;2022-12-18T14:20:44;100490.19;;;-12.01;43.42
42887;BME280;29032;56.028;92.904;2022-12-18T14:25:48;100485.56;;;-11.93;42.66
42887;BME280;29032;56.028;92.904;2022-12-18T14:30:50;100490.19;;;-11.98;43.07
42887;BME280;29032;56.028;92.904;2022-12-18T14:35:55;100496.38;;;-11.97;43.29
42887;BME280;29032;56.028;92.904;2022-12-18T14:41:01;100499.47;;;-11.95;43.16
42887;BME280;29032;56.028;92.904;2022-12-18T14:46:04;100507.53;;;-12.02;43.37
42887;BME280;29032;56.028;92.904;2022-12-18T14:51:14;100513.31;;;-12.14;43.65
42887;BME280;29032;56.028;92.904;2022-12-18T14:56:21;100521.78;;;-12.19;43.58
42887;BME280;29032;56.028;92.904;2022-12-18T15:01:27;100519.06;;;-12.23;44.58
42887;BME280;29032;56.028;92.904;2022-12-18T15:06:34;100515.56;;;-12.23;43.88
42887;BME280;29032;56.028;92.904;2022-12-18T15:11:48;100515.56;;;-12.31;43.75
42887;BME280;29032;56.028;92.904;2022-12-18T15:16:52;100515.56;;;-12.27;44.00
42887;BME280;29032;56.028;92.904;2022-12-18T15:21:54;100522.88;;;-12.35;44.27
42887;BME280;29032;56.028;92.904;2022-12-18T15:26:59;100520.19;;;-12.31;44.79
42887;BME280;29032;56.028;92.904;2022-12-18T15:32:03;100520.91;;;-12.38;44.60
42887;BME280;29032;56.028;92.904;2022-12-18T15:37:07;100527.44;;;-12.46;44.34
42887;BME280;29032;56.028;92.904;2022-12-18T15:42:11;100530.50;;;-12.55;44.70
42887;BME280;29032;56.028;92.904;2022-12-18T15:47:13;100520.06;;;-12.56;44.85
42887;BME280;29032;56.028;92.904;2022-12-18T15:52:15;100519.25;;;-12.64;44.67
42887;BME280;29032;56.028;92.904;2022-12-18T15:57:19;100516.53;;;-12.67;44.82
42887;BME280;29032;56.028;92.904;2022-12-18T16:02:21;100515.28;;;-12.84;45.57
42887;BME280;29032;56.028;92.904;2022-12-18T16:07:23;100526.78;;;-12.94;45.52
42887;BME280;29032;56.028;92.904;2022-12-18T16:12:27;100532.97;;;-12.94;45.56
42887;BME280;29032;56.028;92.904;2022-12-18T16:17:30;100521.38;;;-12.98;46.32
42887;BME280;29032;56.028;92.904;2022-12-18T16:22:32;100518.09;;;-13.21;46.34
42887;BME280;29032;56.028;92.904;2022-12-18T16:27:35;100531.56;;;-13.25;46.36
42887;BME280;29032;56.028;92.904;2022-12-18T16:32:38;100542.00;;;-13.23;46.03
42887;BME280;29032;56.028;92.904;2022-12-18T16:37:41;100550.53;;;-13.14;45.83
42887;BME280;29032;56.028;92.904;2022-12-18T16:42:46;100559.84;;;-13.08;45.88
42887;BME280;29032;56.028;92.904;2022-12-18T16:47:48;100549.75;;;-13.15;45.79
42887;BME280;29032;56.028;92.904;2022-12-18T16:52:50;100555.97;;;-13.11;46.13
42887;BME280;29032;56.028;92.904;2022-12-18T16:57:54;100568.25;;;-13.13;46.41
42887;BME280;29032;56.028;92.904;2022-12-18T17:02:56;100565.16;;;-13.15;46.03
42887;BME280;29032;56.028;92.904;2022-12-18T17:07:58;100572.03;;;-13.25;46.85
42887;BME280;29032;56.028;92.904;2022-12-18T17:13:02;100576.59;;;-13.29;46.74
42887;BME280;29032;56.028;92.904;2022-12-18T17:18:04;100580.56;;;-13.19;46.25
42887;BME280;29032;56.028;92.904;2022-12-18T17:23:06;100603.31;;;-13.13;45.99
42887;BME280;29032;56.028;92.904;2022-12-18T17:28:10;100611.41;;;-13.13;46.33
42887;BME280;29032;56.028;92.904;2022-12-18T17:33:12;100599.13;;;-13.11;46.40
42887;BME280;29032;56.028;92.904;2022-12-18T17:38:14;100604.47;;;-13.14;46.84
42887;BME280;29032;56.028;92.904;2022-12-18T17:43:20;100606.19;;;-12.99;46.90
42887;BME280;29032;56.028;92.904;2022-12-18T17:48:22;100601.19;;;-12.97;47.86
42887;BME280;29032;56.028;92.904;2022-12-18T17:53:24;100599.72;;;-12.84;46.75
42887;BME280;29032;56.028;92.904;2022-12-18T17:58:28;100604.06;;;-12.68;46.56
42887;BME280;29032;56.028;92.904;2022-12-18T18:03:31;100609.53;;;-12.58;46.16
42887;BME280;29032;56.028;92.904;2022-12-18T18:08:34;100618.06;;;-12.52;46.12
42887;BME280;29032;56.028;92.904;2022-12-18T18:13:37;100622.78;;;-12.38;45.89
42887;BME280;29032;56.028;92.904;2022-12-18T18:18:40;100626.34;;;-12.27;46.25
42887;BME280;29032;56.028;92.904;2022-12-18T18:23:42;100623.63;;;-12.27;45.20
42887;BME280;29032;56.028;92.904;2022-12-18T18:28:46;100624.75;;;-12.32;45.80
42887;BME280;29032;56.028;92.904;2022-12-18T18:33:48;100619.34;;;-12.32;45.62
42887;BME280;29032;56.028;92.904;2022-12-18T18:38:50;100623.56;;;-12.38;45.75
42887;BME280;29032;56.028;92.904;2022-12-18T18:43:55;100631.28;;;-12.36;45.63
42887;BME280;29032;56.028;92.904;2022-12-18T18:48:58;100628.47;;;-12.50;45.86
42887;BME280;29032;56.028;92.904;2022-12-18T18:54:00;100636.19;;;-12.53;45.65
42887;BME280;29032;56.028;92.904;2022-12-18T18:59:04;100633.81;;;-12.61;45.33
42887;BME280;29032;56.028;92.904;2022-12-18T19:04:06;100644.22;;;-12.60;45.59
42887;BME280;29032;56.028;92.904;2022-12-18T19:09:08;100632.31;;;-12.55;45.92
42887;BME280;29032;56.028;92.904;2022-12-18T19:14:13;100632.69;;;-12.57;44.99
42887;BME280;29032;56.028;92.904;2022-12-18T19:19:15;100643.56;;;-12.46;45.09
42887;BME280;29032;56.028;92.904;2022-12-18T19:24:17;100649.81;;;-12.35;45.53
42887;BME280;29032;56.028;92.904;2022-12-18T19:29:21;100656.00;;;-12.31;45.01
42887;BME280;29032;56.028;92.904;2022-12-18T19:34:23;100661.47;;;-12.23;44.69
42887;BME280;29032;56.028;92.904;2022-12-18T19:39:25;100668.09;;;-12.10;44.47
42887;BME280;29032;56.028;92.904;2022-12-18T19:44:29;100669.34;;;-11.97;44.75
42887;BME280;29032;56.028;92.904;2022-12-18T19:49:31;100678.66;;;-11.91;44.88
42887;BME280;29032;56.028;92.904;2022-12-18T19:54:33;100674.41;;;-11.92;44.49
42887;BME280;29032;56.028;92.904;2022-12-18T19:59:37;100683.25;;;-11.99;44.67
42887;BME280;29032;56.028;92.904;2022-12-18T20:04:39;100681.53;;;-12.25;44.67
42887;BME280;29032;56.028;92.904;2022-12-18T20:09:41;100686.38;;;-12.44;44.97
42887;BME280;29032;56.028;92.904;2022-12-18T20:14:45;100677.78;;;-12.57;45.23
42887;BME280;29032;56.028;92.904;2022-12-18T20:19:47;100680.50;;;-12.57;45.28
42887;BME280;29032;56.028;92.904;2022-12-18T20:24:49;100676.97;;;-12.65;46.17
42887;BME280;29032;56.028;92.904;2022-12-18T20:29:52;100678.63;;;-12.53;45.26
42887;BME280;29032;56.028;92.904;2022-12-18T20:34:54;100668.97;;;-12.54;45.33
42887;BME280;29032;56.028;92.904;2022-12-18T20:39:57;100663.56;;;-12.54;45.46
42887;BME280;29032;56.028;92.904;2022-12-18T20:45:00;100649.78;;;-12.38;45.82
42887;BME280;29032;56.028;92.904;2022-12-18T20:50:03;100660.72;;;-12.20;45.17
42887;BME280;29032;56.028;92.904;2022-12-18T20:55:06;100662.34;;;-12.05;44.38
42887;BME280;29032;56.028;92.904;2022-12-18T21:00:12;100657.72;;;-12.01;44.01
42887;BME280;29032;56.028;92.904;2022-12-18T21:05:14;100652.56;;;-12.28;45.20
42887;BME280;29032;56.028;92.904;2022-12-18T21:10:16;100654.34;;;-12.49;45.99
42887;BME280;29032;56.028;92.904;2022-12-18T21:15:20;100657.00;;;-12.53;45.73
42887;BME280;29032;56.028;92.904;2022-12-18T21:20:22;100657.34;;;-12.62;45.72
42887;BME280;29032;56.028;92.904;2022-12-18T21:25:24;100652.72;;;-12.61;46.11
42887;BME280;29032;56.028;92.904;2022-12-18T21:30:28;100641.19;;;-12.55;46.03
42887;BME280;29032;56.028;92.904;2022-12-18T21:35:30;100642.69;;;-12.57;46.45
42887;BME280;29032;56.028;92.904;2022-12-18T21:40:32;100638.41;;;-12.65;46.43
42887;BME280;29032;56.028;92.904;2022-12-18T21:45:36;100627.22;;;-12.67;47.03
42887;BME280;29032;56.028;92.904;2022-12-18T21:50:38;100631.50;;;-12.59;46.50
42887;BME280;29032;56.028;92.904;2022-12-18T21:55:40;100633.09;;;-12.51;46.44
42887;BME280;29032;56.028;92.904;2022-12-18T22:00:44;100635.16;;;-12.34;46.66
42887;BME280;29032;56.028;92.904;2022-12-18T22:05:46;100626.69;;;-12.29;45.84
42887;BME280;29032;56.028;92.904;2022-12-18T22:10:48;100628.25;;;-12.28;46.22
42887;BME280;29032;56.028;92.904;2022-12-18T22:15:52;100625.91;;;-12.29;46.09
42887;BME280;29032;56.028;92.904;2022-12-18T22:21:04;100637.53;;;-12.25;45.57
42887;BME280;29032;56.028;92.904;2022-12-18T22:26:07;100628.25;;;-12.28;46.08
42887;BME280;29032;56.028;92.904;2022-12-18T22:31:11;100620.53;;;-12.26;45.65
42887;BME280;29032;56.028;92.904;2022-12-18T22:36:13;100626.25;;;-12.38;45.97
42887;BME280;29032;56.028;92.904;2022-12-18T22:41:15;100617.31;;;-12.49;45.82
42887;BME280;29032;56.028;92.904;2022-12-18T22:46:21;100610.72;;;-12.55;46.04
42887;BME280;29032;56.028;92.904;2022-12-18T22:51:25;100624.16;;;-12.62;46.29
42887;BME280;29032;56.028;92.904;2022-12-18T22:56:27;100619.50;;;-12.65;47.07
42887;BME280;29032;56.028;92.904;2022-12-18T23:01:31;100626.94;;;-12.52;46.37
42887;BME280;29032;56.028;92.904;2022-12-18T23:06:33;100628.84;;;-12.52;47.02
42887;BME280;29032;56.028;92.904;2022-12-18T23:11:35;100635.75;;;-12.58;47.55
42887;BME280;29032;56.028;92.904;2022-12-18T23:16:39;100649.97;;;-12.65;47.64
42887;BME280;29032;56.028;92.904;2022-12-18T23:21:41;100647.19;;;-12.75;47.84
42887;BME280;29032;56.028;92.904;2022-12-18T23:26:43;100631.84;;;-12.64;47.63
42887;BME280;29032;56.028;92.904;2022-12-18T23:31:47;100631.53;;;-12.56;48.02
42887;BME280;29032;56.028;92.904;2022-12-18T23:36:49;100624.28;;;-12.48;49.07
42887;BME280;29032;56.028;92.904;2022-12-18T23:41:51;100641.69;;;-12.42;48.27
42887;BME280;29032;56.028;92.904;2022-12-18T23:46:54;100641.25;;;-12.47;48.10
42887;BME280;29032;56.028;92.904;2022-12-18T23:51:57;100646.22;;;-12.53;47.91
42887;BME280;29032;56.028;92.904;2022-12-18T23:56:59;100647.16;;;-12.83;46.91
